Time;durP1;ratioP1;P1;durP2;ratioP2;P2;SDS_P1;SDS_P2;PMS_P1;PMS_P2;Temp;Humidity;BMP_temperature;BMP_pressure;BME280_temperature;BME280_humidity;BME280_pressure;Samples;Min_cycle;Max_cycle;Signal;HPM_P1;HPM_P2
2024/01/07 00:02:23;;;;;;;;;;;12.10;51.40;;;12.30;54.28;100668.25;5054665;28;20023;-35
2024/01/07 00:04:51;;;;;;;;;;;12.10;51.50;;;12.32;54.00;100676.91;5054600;28;19925;-37
2024/01/07 00:07:20;;;;;;;;;;;12.10;51.40;;;12.35;54.62;100678.16;5054333;28;19925;-36
2024/01/07 00:09:49;;;;;;;;;;;12.10;51.40;;;12.37;54.26;100673.34;5053876;28;20358;-35
2024/01/07 00:12:17;;;;;;;;;;;12.20;51.50;;;12.40;54.31;100676.22;5054781;28;19979;-36
2024/01/07 00:14:45;;;;;;;;;;;12.20;51.30;;;12.41;54.05;100688.06;5054604;28;19971;-36
2024/01/07 00:17:13;;;;;;;;;;;12.30;51.40;;;12.41;54.60;100688.06;5054615;28;19931;-36
2024/01/07 00:19:42;;;;;;;;;;;12.30;51.40;;;12.41;54.32;100690.56;5053556;28;19929;-36
2024/01/07 00:22:09;;;;;;;;;;;12.30;51.30;;;12.42;53.47;100692.38;5054759;28;19997;-36
2024/01/07 00:24:37;;;;;;;;;;;12.20;51.20;;;12.41;54.33;100698.13;5054994;28;20051;-36
2024/01/07 00:27:08;;;;;;;;;;;12.30;51.30;;;12.42;53.44;100700.81;5059610;28;19925;-36
2024/01/07 00:29:36;;;;;;;;;;;12.30;51.20;;;12.39;54.02;100704.59;5059090;28;19931;-36
2024/01/07 00:32:04;;;;;;;;;;;12.20;51.20;;;12.35;54.39;100708.31;5059040;28;20298;-36
2024/01/07 00:34:32;;;;;;;;;;;12.20;51.20;;;12.34;53.63;100710.63;5053995;28;19960;-36
2024/01/07 00:37:00;;;;;;;;;;;12.20;51.20;;;12.31;53.59;100711.16;5053916;28;19925;-36
2024/01/07 00:39:28;;;;;;;;;;;12.10;51.20;;;12.28;54.57;100704.84;5054036;28;20392;-35
2024/01/07 00:41:56;;;;;;;;;;;12.10;51.30;;;12.25;54.20;100715.44;5055021;28;20376;-35
2024/01/07 00:44:25;;;;;;;;;;;12.10;51.30;;;12.23;54.55;100708.41;5053830;28;19931;-35
2024/01/07 00:46:53;;;;;;;;;;;12.10;51.40;;;12.22;54.18;100719.16;5053430;28;19947;-35
2024/01/07 00:49:21;;;;;;;;;;;12.10;51.40;;;12.19;54.70;100718.81;5053012;28;20296;-34
2024/01/07 00:51:49;;;;;;;;;;;12.00;51.30;;;12.14;54.17;100709.78;5054505;28;20010;-35
2024/01/07 00:54:17;;;;;;;;;;;12.00;51.40;;;12.15;54.80;100717.50;5053859;28;19925;-35
2024/01/07 00:56:46;;;;;;;;;;;12.00;51.40;;;12.13;54.26;100723.06;5053395;28;20689;-35
2024/01/07 00:59:14;;;;;;;;;;;11.90;51.30;;;12.12;54.95;100723.75;5053113;28;19925;-37
2024/01/07 01:01:43;;;;;;;;;;;12.00;51.40;;;12.09;54.29;100722.66;5053601;28;19971;-34
2024/01/07 01:04:11;;;;;;;;;;;12.00;51.30;;;12.09;54.68;100737.72;5053121;28;19994;-36
2024/01/07 01:06:39;;;;;;;;;;;11.90;51.60;;;12.08;54.82;100740.94;5053382;28;20330;-34
2024/01/07 01:09:07;;;;;;;;;;;11.90;51.40;;;12.07;54.40;100734.16;5052957;28;19932;-34
2024/01/07 01:11:35;;;;;;;;;;;11.90;51.90;;;12.06;54.38;100742.38;5053571;28;20012;-37
2024/01/07 01:14:02;;;;;;;;;;;11.90;52.00;;;12.05;54.13;100735.56;5053439;28;19925;-37
2024/01/07 01:16:30;;;;;;;;;;;11.90;51.30;;;12.06;54.33;100741.50;5053001;28;19931;-37
2024/01/07 01:19:00;;;;;;;;;;;11.90;52.00;;;12.06;54.55;100751.53;5052400;28;20857;-37
2024/01/07 01:21:28;;;;;;;;;;;11.90;51.30;;;12.07;53.97;100754.25;5053394;28;19971;-36
2024/01/07 01:23:55;;;;;;;;;;;11.90;51.90;;;12.08;53.93;100755.13;5053353;28;19979;-37
2024/01/07 01:26:23;;;;;;;;;;;11.90;51.30;;;12.08;54.08;100761.03;5052970;28;19963;-36
2024/01/07 01:28:51;;;;;;;;;;;11.90;51.20;;;12.08;54.12;100751.00;5052417;28;20023;-37
2024/01/07 01:31:19;;;;;;;;;;;11.90;51.20;;;12.09;54.22;100762.84;5052767;28;20047;-35
2024/01/07 01:33:47;;;;;;;;;;;11.90;51.10;;;12.11;54.13;100764.66;5053260;28;19924;-35
2024/01/07 01:36:17;;;;;;;;;;;11.90;51.10;;;12.13;53.92;100768.28;5053190;28;19932;-35
2024/01/07 01:38:44;;;;;;;;;;;11.90;51.10;;;12.16;54.58;100766.13;5052078;28;20426;-35
2024/01/07 01:41:12;;;;;;;;;;;12.00;51.20;;;12.18;54.11;100772.25;5052923;28;20299;-35
2024/01/07 01:43:40;;;;;;;;;;;12.00;51.20;;;12.23;53.53;100781.25;5052539;28;19947;-35
2024/01/07 01:46:08;;;;;;;;;;;12.00;51.30;;;12.27;54.16;100784.34;5053115;28;20048;-35
2024/01/07 01:48:36;;;;;;;;;;;12.10;51.30;;;12.27;53.46;100784.34;5051924;28;19936;-35
2024/01/07 01:51:05;;;;;;;;;;;12.10;51.10;;;12.32;53.82;100777.41;5052770;28;19968;-35
2024/01/07 01:53:34;;;;;;;;;;;12.10;51.10;;;12.33;53.84;100786.75;5052736;28;20012;-35
2024/01/07 01:56:03;;;;;;;;;;;12.20;51.00;;;12.35;54.07;100785.31;5052575;28;19924;-35
2024/01/07 01:58:30;;;;;;;;;;;12.20;50.90;;;12.38;54.03;100788.22;5051524;28;19925;-35
2024/01/07 02:00:59;;;;;;;;;;;12.20;50.90;;;12.37;54.17;100792.34;5052852;28;20419;-35
2024/01/07 02:03:27;;;;;;;;;;;12.30;51.00;;;12.37;54.29;100796.47;5052585;28;19960;-35
2024/01/07 02:05:55;;;;;;;;;;;12.20;50.80;;;12.36;54.11;100795.56;5052415;28;19940;-35
2024/01/07 02:08:22;;;;;;;;;;;12.20;50.80;;;12.35;54.01;100795.34;5052192;28;19983;-35
2024/01/07 02:10:52;;;;;;;;;;;12.20;50.90;;;12.33;53.25;100799.31;5043798;28;19925;-35
2024/01/07 02:13:20;;;;;;;;;;;12.20;50.90;;;12.32;53.57;100802.53;5052274;28;20399;-35
2024/01/07 02:15:48;;;;;;;;;;;12.20;51.00;;;12.27;53.63;100804.44;5051985;28;19929;-35
2024/01/07 02:18:16;;;;;;;;;;;12.10;51.10;;;12.26;53.62;100811.81;5052659;28;19925;-35
2024/01/07 02:20:44;;;;;;;;;;;12.10;51.10;;;12.23;54.75;100807.28;5044754;28;19925;-35
2024/01/07 02:23:11;;;;;;;;;;;12.10;51.10;;;12.21;54.06;100807.78;5052067;28;20372;-35
2024/01/07 02:25:41;;;;;;;;;;;12.00;51.00;;;12.19;54.25;100814.25;5051916;28;19925;-35
2024/01/07 02:28:09;;;;;;;;;;;12.00;51.00;;;12.15;53.57;100807.03;5052121;28;20411;-35
2024/01/07 02:30:37;;;;;;;;;;;12.00;51.10;;;12.14;53.73;100810.28;5051416;28;19929;-35
2024/01/07 02:33:05;;;;;;;;;;;12.00;51.20;;;12.11;54.30;100814.88;5052085;28;20004;-35
2024/01/07 02:35:33;;;;;;;;;;;12.00;51.10;;;12.11;54.25;100814.88;5051773;28;19932;-35
2024/01/07 02:38:01;;;;;;;;;;;11.90;51.10;;;12.08;53.81;100812.88;5051745;28;19940;-35
2024/01/07 02:40:29;;;;;;;;;;;11.90;51.20;;;12.06;54.07;100822.75;5051402;28;19970;-35
2024/01/07 02:42:58;;;;;;;;;;;11.90;51.10;;;12.05;54.08;100815.94;5052056;28;19925;-35
2024/01/07 02:45:26;;;;;;;;;;;11.90;51.10;;;12.05;54.29;100820.94;5051539;28;19971;-35
2024/01/07 02:47:54;;;;;;;;;;;11.90;51.10;;;12.03;54.14;100822.34;5052176;28;19932;-35
2024/01/07 02:50:22;;;;;;;;;;;11.90;51.70;;;12.02;53.79;100828.06;5051703;28;19932;-35
2024/01/07 02:52:50;;;;;;;;;;;11.90;51.10;;;11.98;53.88;100823.38;5051998;28;19976;-35
2024/01/07 02:55:19;;;;;;;;;;;11.90;51.10;;;12.02;54.37;100829.69;5051924;28;19935;-35
2024/01/07 02:57:47;;;;;;;;;;;11.90;51.10;;;12.01;53.88;100828.78;5051463;28;19991;-35
2024/01/07 03:00:17;;;;;;;;;;;11.80;51.00;;;12.00;54.24;100834.53;5051542;28;19925;-35
2024/01/07 03:02:45;;;;;;;;;;;11.80;51.00;;;12.00;54.29;100832.03;5051549;28;19931;-35
2024/01/07 03:05:13;;;;;;;;;;;11.80;50.90;;;12.01;54.21;100837.97;5051607;28;20388;-35
2024/01/07 03:07:41;;;;;;;;;;;11.80;50.90;;;12.02;54.33;100838.13;5051859;28;19928;-35
2024/01/07 03:10:09;;;;;;;;;;;11.80;51.10;;;12.05;54.59;100843.56;5055201;28;19929;-35
2024/01/07 03:12:37;;;;;;;;;;;11.90;51.20;;;12.07;53.73;100849.69;5055655;28;20295;-35
2024/01/07 03:15:08;;;;;;;;;;;11.90;51.20;;;12.12;54.07;100847.75;5055569;28;19925;-35
2024/01/07 03:17:37;;;;;;;;;;;11.90;51.20;;;12.16;54.28;100838.97;5055387;28;19925;-35
2024/01/07 03:20:07;;;;;;;;;;;12.00;51.20;;;12.18;53.66;100845.09;5048156;28;19924;-35
2024/01/07 03:22:35;;;;;;;;;;;12.00;51.10;;;12.19;54.70;100849.41;5055512;28;20016;-35
2024/01/07 03:25:03;;;;;;;;;;;12.10;51.10;;;12.23;54.18;100854.13;5055398;28;20199;-35
2024/01/07 03:27:31;;;;;;;;;;;12.10;50.90;;;12.24;53.90;100854.31;5055367;28;19925;-35
2024/01/07 03:29:59;;;;;;;;;;;12.10;50.80;;;12.25;53.70;100846.06;5054470;28;19974;-35
2024/01/07 03:32:27;;;;;;;;;;;12.10;50.70;;;12.27;53.12;100853.78;5055328;28;19925;-35
2024/01/07 03:34:57;;;;;;;;;;;12.20;50.70;;;12.31;53.56;100863.53;5047234;28;20023;-35
2024/01/07 03:37:25;;;;;;;;;;;12.20;50.70;;;12.30;53.70;100864.22;5055308;28;19928;-35
2024/01/07 03:39:53;;;;;;;;;;;12.20;50.70;;;12.28;53.50;100861.53;5054373;28;19931;-35
2024/01/07 03:42:21;;;;;;;;;;;12.10;50.70;;;12.32;53.29;100870.38;5055659;28;19929;-35
2024/01/07 03:44:48;;;;;;;;;;;12.10;50.70;;;12.32;53.33;100865.34;5055455;28;20341;-35
2024/01/07 03:47:16;;;;;;;;;;;12.10;50.60;;;12.32;53.22;100867.84;5055231;28;20419;-35
2024/01/07 03:49:44;;;;;;;;;;;12.10;50.70;;;12.30;53.30;100869.25;5054284;28;20316;-35
2024/01/07 03:52:14;;;;;;;;;;;12.10;50.70;;;12.30;52.94;100876.78;5054835;28;19932;-35
2024/01/07 03:54:42;;;;;;;;;;;12.10;50.70;;;12.30;53.58;100874.28;5054933;28;19932;-35
2024/01/07 03:57:10;;;;;;;;;;;12.10;50.70;;;12.27;53.04;100881.41;5054972;28;19924;-35
2024/01/07 03:59:38;;;;;;;;;;;12.00;50.60;;;12.22;53.73;100882.44;5054216;28;20015;-35
2024/01/07 04:02:05;;;;;;;;;;;12.00;50.50;;;12.19;53.15;100893.03;5054738;28;20388;-35
2024/01/07 04:04:33;;;;;;;;;;;12.00;50.50;;;12.17;52.93;100891.03;5054634;28;19929;-35
2024/01/07 04:07:01;;;;;;;;;;;12.00;50.60;;;12.13;53.67;100894.75;5054369;28;19929;-35
2024/01/07 04:09:31;;;;;;;;;;;12.00;50.60;;;12.11;54.05;100905.31;5053723;28;19978;-35
2024/01/07 04:11:59;;;;;;;;;;;11.90;50.60;;;12.09;54.26;100908.53;5046982;28;20019;-35
2024/01/07 04:14:27;;;;;;;;;;;11.90;50.70;;;12.08;53.18;100900.78;5054516;28;19931;-35
2024/01/07 04:16:55;;;;;;;;;;;11.90;50.70;;;12.05;54.24;100911.34;5054545;28;19925;-35
2024/01/07 04:19:23;;;;;;;;;;;11.90;50.70;;;12.03;53.47;100907.75;5047557;28;19973;-35
2024/01/07 04:21:51;;;;;;;;;;;11.90;50.70;;;12.03;53.91;100912.75;5052961;28;20385;-35
2024/01/07 04:24:19;;;;;;;;;;;11.90;50.70;;;12.01;53.64;100913.28;5054447;28;19929;-35
2024/01/07 04:26:48;;;;;;;;;;;11.90;50.80;;;12.00;53.63;100912.38;5054747;28;19979;-35
2024/01/07 04:29:16;;;;;;;;;;;11.80;50.60;;;12.00;53.68;100917.41;5053629;28;20008;-35
2024/01/07 04:31:44;;;;;;;;;;;11.80;50.70;;;11.99;53.95;100920.63;5054120;28;19924;-35
2024/01/07 04:34:12;;;;;;;;;;;11.80;50.80;;;12.00;53.46;100921.53;5054158;28;19925;-35
2024/01/07 04:36:41;;;;;;;;;;;11.80;50.80;;;12.03;53.44;100922.81;5053818;28;20294;-35
2024/01/07 04:39:09;;;;;;;;;;;11.80;50.80;;;12.04;53.94;100929.66;5053601;28;20011;-35
2024/01/07 04:41:37;;;;;;;;;;;11.90;50.80;;;12.04;53.37;100929.66;5054159;28;20007;-35
2024/01/07 04:44:07;;;;;;;;;;;11.90;50.90;;;12.05;53.85;100935.56;5054054;28;19976;-35
2024/01/07 04:46:35;;;;;;;;;;;11.90;50.80;;;12.05;54.05;100936.47;5053831;28;20391;-35
2024/01/07 04:49:03;;;;;;;;;;;11.90;50.80;;;12.05;54.24;100931.44;5053012;28;20365;-35
2024/01/07 04:51:31;;;;;;;;;;;11.90;50.70;;;12.04;53.42;100934.66;5054080;28;19925;-35
2024/01/07 04:53:59;;;;;;;;;;;11.90;50.80;;;12.03;53.51;100932.84;5053901;28;19968;-35
2024/01/07 04:56:27;;;;;;;;;;;11.90;50.70;;;12.03;53.51;100937.88;5054040;28;20007;-35
2024/01/07 04:58:54;;;;;;;;;;;11.90;50.50;;;12.03;52.97;100937.88;5053333;28;20204;-35
2024/01/07 05:01:24;;;;;;;;;;;11.80;51.10;;;12.03;53.95;100947.94;5054011;28;20011;-35
2024/01/07 05:03:52;;;;;;;;;;;11.90;50.70;;;12.04;53.53;100949.72;5054400;28;19928;-35
2024/01/07 05:06:20;;;;;;;;;;;11.90;50.60;;;12.05;53.93;100951.53;5054063;28;19924;-35
2024/01/07 05:08:48;;;;;;;;;;;11.90;50.50;;;12.08;53.54;100956.94;5053090;28;20012;-35
2024/01/07 05:11:17;;;;;;;;;;;11.90;50.50;;;12.07;53.54;100960.19;5053658;28;19925;-35
2024/01/07 05:13:45;;;;;;;;;;;11.90;50.50;;;12.06;53.44;100958.38;5053544;28;20016;-35
2024/01/07 05:16:19;;;;;;;;;;;11.90;50.30;;;12.09;53.07;100963.78;5053388;28;19976;-35
2024/01/07 05:18:48;;;;;;;;;;;11.90;50.30;;;12.09;53.80;100963.78;5052580;28;20020;-35
2024/01/07 05:21:19;;;;;;;;;;;11.90;50.30;;;12.13;52.98;100974.25;5053652;28;20458;-35
2024/01/07 05:23:47;;;;;;;;;;;11.90;50.20;;;12.14;53.68;100973.53;5053385;28;19931;-35
2024/01/07 05:26:15;;;;;;;;;;;11.90;50.30;;;12.13;53.03;100974.25;5053399;28;20273;-35
2024/01/07 05:28:42;;;;;;;;;;;11.90;50.20;;;12.13;52.54;100981.78;5052128;28;20384;-35
2024/01/07 05:31:15;;;;;;;;;;;11.90;50.20;;;12.16;52.75;100984.66;5052646;28;19925;-35
2024/01/07 05:33:43;;;;;;;;;;;12.00;50.20;;;12.13;53.07;100990.22;5052485;28;20004;-35
2024/01/07 05:36:13;;;;;;;;;;;12.00;50.20;;;12.15;53.04;100992.91;5057838;28;20197;-35
2024/01/07 05:38:42;;;;;;;;;;;12.00;50.20;;;12.15;53.24;100998.81;5054746;28;20015;-35
2024/01/07 05:41:10;;;;;;;;;;;12.00;50.10;;;12.15;53.44;101002.94;5052760;28;20012;-35
2024/01/07 05:43:38;;;;;;;;;;;12.00;50.20;;;12.14;53.50;100996.16;5052505;28;20428;-35
2024/01/07 05:46:06;;;;;;;;;;;12.00;50.20;;;12.15;53.35;101008.88;5052519;28;20416;-35
2024/01/07 05:48:41;;;;;;;;;;;12.00;50.30;;;12.13;52.88;101004.38;5052435;28;20427;-35
2024/01/07 05:51:09;;;;;;;;;;;12.00;50.10;;;12.13;53.15;101014.44;5045558;28;20180;-35
2024/01/07 05:53:39;;;;;;;;;;;11.90;50.10;;;12.13;52.58;101019.44;5052074;28;20395;-35
2024/01/07 05:56:07;;;;;;;;;;;11.90;50.10;;;12.14;53.77;101024.66;5052292;28;19925;-35
2024/01/07 05:58:35;;;;;;;;;;;11.90;50.40;;;12.13;53.68;101034.53;5051796;28;20372;-35
2024/01/07 06:01:03;;;;;;;;;;;12.00;50.20;;;12.13;53.14;101039.53;5052580;28;20019;-35
2024/01/07 06:03:31;;;;;;;;;;;12.00;50.30;;;12.12;52.66;101042.75;5052529;28;19946;-35
2024/01/07 06:05:59;;;;;;;;;;;12.00;50.40;;;12.14;53.25;101036.34;5052073;28;19925;-35
2024/01/07 06:08:27;;;;;;;;;;;12.00;50.40;;;12.12;53.17;101047.78;5052052;28;19928;-35
2024/01/07 06:10:56;;;;;;;;;;;12.00;50.30;;;12.09;53.26;101049.19;5051556;28;20024;-35
2024/01/07 06:13:24;;;;;;;;;;;11.90;50.30;;;12.09;53.18;101048.28;5052312;28;20027;-35
2024/01/07 06:15:53;;;;;;;;;;;11.90;50.20;;;12.05;52.85;101052.00;5052173;28;19925;-35
2024/01/07 06:18:21;;;;;;;;;;;11.90;50.20;;;12.05;53.17;101057.03;5052169;28;19932;-35
2024/01/07 06:20:49;;;;;;;;;;;11.90;50.30;;;12.02;52.81;101061.63;5051549;28;19925;-35
2024/01/07 06:23:17;;;;;;;;;;;11.90;50.20;;;12.00;53.66;101058.03;5052313;28;20011;-35
2024/01/07 06:25:45;;;;;;;;;;;11.80;50.20;;;11.98;53.29;101073.59;5052000;28;19946;-35
2024/01/07 06:28:14;;;;;;;;;;;11.80;50.20;;;11.97;53.08;101075.22;5052004;28;20366;-35
2024/01/07 06:30:42;;;;;;;;;;;11.80;50.30;;;11.97;53.05;101076.81;5051109;28;20054;-34
2024/01/07 06:33:10;;;;;;;;;;;11.80;50.20;;;11.95;53.38;101083.28;5052018;28;19964;-35
2024/01/07 06:35:38;;;;;;;;;;;11.80;50.20;;;11.94;53.25;101082.34;5052464;28;19979;-35
2024/01/07 06:38:06;;;;;;;;;;;11.80;50.20;;;11.93;52.95;101085.56;5044504;28;20007;-36
2024/01/07 06:40:34;;;;;;;;;;;11.80;50.10;;;11.93;53.44;101099.72;5051299;28;19925;-35
2024/01/07 06:43:02;;;;;;;;;;;11.80;50.20;;;11.93;53.13;101098.13;5051467;28;20060;-35
2024/01/07 06:45:31;;;;;;;;;;;11.80;50.20;;;11.91;53.11;101102.03;5051730;28;20016;-35
2024/01/07 06:48:00;;;;;;;;;;;11.80;50.20;;;11.92;53.61;101098.81;5054119;28;20564;-35
2024/01/07 06:50:28;;;;;;;;;;;11.80;50.20;;;11.92;52.97;101097.91;5055948;28;19931;-36
2024/01/07 06:52:56;;;;;;;;;;;11.80;50.10;;;11.91;53.21;101102.03;5051612;28;19925;-36
2024/01/07 06:55:24;;;;;;;;;;;11.80;50.10;;;11.92;53.17;101103.84;5051657;28;20463;-35
2024/01/07 06:57:52;;;;;;;;;;;11.80;50.10;;;11.95;53.28;101114.28;5051504;28;19925;-35
2024/01/07 07:00:20;;;;;;;;;;;11.80;50.00;;;11.96;53.03;101120.19;5050909;28;20438;-35
2024/01/07 07:02:49;;;;;;;;;;;11.80;50.00;;;11.88;53.22;101111.69;5051572;28;19971;-35
2024/01/07 07:05:17;;;;;;;;;;;11.80;50.00;;;11.99;52.39;101131.56;5051615;28;19925;-35
2024/01/07 07:07:45;;;;;;;;;;;11.80;49.90;;;12.01;52.86;101140.19;5051539;28;19932;-35
2024/01/07 07:10:13;;;;;;;;;;;11.80;50.00;;;12.06;52.86;101145.84;5050853;28;19928;-35
2024/01/07 07:12:42;;;;;;;;;;;11.90;50.10;;;12.11;52.73;101146.44;5051529;28;19924;-34
2024/01/07 07:15:10;;;;;;;;;;;11.90;50.10;;;12.13;53.45;101145.97;5051573;28;19928;-35
2024/01/07 07:17:39;;;;;;;;;;;11.90;50.00;;;12.14;53.13;101154.41;5051796;28;19925;-35
2024/01/07 07:20:09;;;;;;;;;;;12.00;50.10;;;12.19;52.47;101160.94;5043059;28;19925;-35
2024/01/07 07:22:37;;;;;;;;;;;12.00;50.00;;;12.19;53.05;101161.84;5051618;28;20291;-36
2024/01/07 07:25:06;;;;;;;;;;;12.00;49.60;;;12.19;52.45;101161.84;5051326;28;20419;-35
2024/01/07 07:27:34;;;;;;;;;;;12.10;49.70;;;12.20;52.32;101172.78;5051385;28;19929;-35
2024/01/07 07:30:02;;;;;;;;;;;12.10;49.80;;;12.21;52.47;101179.59;5050945;28;19940;-35
2024/01/07 07:32:30;;;;;;;;;;;12.10;49.80;;;12.22;53.08;101178.91;5051514;28;19925;-35
2024/01/07 07:34:58;;;;;;;;;;;12.10;49.70;;;12.19;52.10;101188.56;5051888;28;19925;-35
2024/01/07 07:37:27;;;;;;;;;;;12.00;49.60;;;12.18;52.09;101196.78;5053172;28;19925;-35
2024/01/07 07:39:55;;;;;;;;;;;12.00;49.60;;;12.15;52.22;101199.78;5051147;28;19925;-35
2024/01/07 07:42:23;;;;;;;;;;;12.00;49.80;;;12.14;53.16;101199.63;5052325;28;20347;-35
2024/01/07 07:44:51;;;;;;;;;;;12.00;49.90;;;12.16;52.13;101210.75;5052055;28;19928;-35
2024/01/07 07:47:20;;;;;;;;;;;11.90;49.60;;;12.12;53.29;101208.53;5051943;28;19925;-35
2024/01/07 07:49:50;;;;;;;;;;;11.90;49.90;;;12.09;53.12;101217.47;5051563;28;19925;-35
2024/01/07 07:52:25;;;;;;;;;;;11.90;50.00;;;12.05;52.90;101217.78;5051892;28;19931;-35
2024/01/07 07:54:54;;;;;;;;;;;11.80;49.70;;;12.00;53.03;101218.78;5052487;28;19925;-35
2024/01/07 07:57:24;;;;;;;;;;;11.80;49.80;;;11.99;52.63;101232.03;5055891;28;19929;-35
2024/01/07 07:59:52;;;;;;;;;;;11.80;49.70;;;11.97;52.34;101238.44;5053972;28;20407;-35
2024/01/07 08:02:20;;;;;;;;;;;11.80;49.80;;;11.96;52.35;101246.69;5054743;28;19924;-35
2024/01/07 08:04:48;;;;;;;;;;;11.80;49.70;;;11.93;52.55;101251.31;5054456;28;20008;-35
2024/01/07 08:07:16;;;;;;;;;;;11.80;49.70;;;11.91;52.78;101255.22;5054265;28;19925;-35
2024/01/07 08:09:44;;;;;;;;;;;11.80;49.80;;;11.91;52.66;101257.72;5053757;28;20024;-34
2024/01/07 08:12:13;;;;;;;;;;;11.80;49.80;;;11.90;53.00;101263.44;5054587;28;19925;-35
2024/01/07 08:14:41;;;;;;;;;;;11.70;49.70;;;11.88;53.25;101264.88;5054492;28;19947;-35
2024/01/07 08:17:09;;;;;;;;;;;11.70;49.70;;;11.87;52.95;101270.56;5054436;28;19947;-35
2024/01/07 08:19:37;;;;;;;;;;;11.70;49.90;;;11.87;52.93;101275.59;5053420;28;20372;-35
2024/01/07 08:22:05;;;;;;;;;;;11.70;49.70;;;11.85;52.96;101271.97;5053976;28;20015;-35
2024/01/07 08:24:33;;;;;;;;;;;11.70;49.70;;;11.85;52.78;101276.09;5054248;28;20392;-35
2024/01/07 08:27:02;;;;;;;;;;;11.70;49.70;;;11.86;52.68;101286.34;5054363;28;19990;-35
2024/01/07 08:29:32;;;;;;;;;;;11.70;49.70;;;11.88;53.13;101287.47;5053678;28;19968;-35
2024/01/07 08:32:00;;;;;;;;;;;11.70;49.90;;;11.90;53.03;101281.00;5053958;28;20032;-35
2024/01/07 08:34:29;;;;;;;;;;;11.80;49.90;;;11.94;52.48;101295.81;5054068;28;19940;-34
2024/01/07 08:36:57;;;;;;;;;;;11.80;50.00;;;11.94;53.18;101298.34;5054052;28;19928;-35
2024/01/07 08:39:25;;;;;;;;;;;11.80;49.90;;;11.99;52.76;101312.41;5053744;28;19928;-35
2024/01/07 08:41:53;;;;;;;;;;;11.80;49.80;;;11.99;52.52;101314.91;5053889;28;20007;-35
2024/01/07 08:44:21;;;;;;;;;;;11.90;49.80;;;12.01;53.13;101325.19;5053678;28;19963;-35
2024/01/07 08:46:52;;;;;;;;;;;11.90;49.70;;;12.01;52.59;101326.06;5053023;28;20420;-34
2024/01/07 08:49:20;;;;;;;;;;;11.90;49.70;;;12.02;53.06;101332.88;5053225;28;19955;-35
2024/01/07 08:51:48;;;;;;;;;;;11.90;49.60;;;12.00;52.49;101334.31;5053822;28;20337;-35
2024/01/07 08:54:16;;;;;;;;;;;11.90;49.60;;;12.03;52.29;101339.72;5053861;28;19925;-35
2024/01/07 08:56:45;;;;;;;;;;;11.90;49.60;;;12.00;53.08;101344.38;5054024;28;19931;-35
2024/01/07 08:59:13;;;;;;;;;;;11.90;49.30;;;12.01;52.15;101346.16;5052928;28;19925;-35
2024/01/07 09:01:40;;;;;;;;;;;11.90;49.40;;;11.72;52.02;101297.69;5053904;28;19964;-35
2024/01/07 09:04:10;;;;;;;;;;;11.80;49.10;;;12.06;51.73;101359.34;5054094;28;19976;-35
2024/01/07 09:06:38;;;;;;;;;;;11.80;49.30;;;12.05;51.38;101358.44;5055538;28;20380;-35
2024/01/07 09:09:06;;;;;;;;;;;11.80;49.40;;;12.05;52.03;101360.94;5060887;28;19958;-35
2024/01/07 09:11:35;;;;;;;;;;;11.80;49.40;;;12.06;52.14;101360.25;5055748;28;19925;-35
2024/01/07 09:14:04;;;;;;;;;;;11.80;49.40;;;12.05;51.57;101357.53;5063332;28;20008;-35
2024/01/07 09:16:31;;;;;;;;;;;11.80;49.20;;;12.05;52.22;101362.56;5054512;28;20012;-34
2024/01/07 09:18:59;;;;;;;;;;;11.80;49.20;;;12.05;52.12;101363.47;5051754;28;19972;-34
2024/01/07 09:21:29;;;;;;;;;;;11.80;49.20;;;11.74;52.26;101312.31;5055127;28;20032;-35
2024/01/07 09:23:57;;;;;;;;;;;11.80;49.20;;;12.03;51.67;101379.91;5053794;28;19924;-35
2024/01/07 09:26:25;;;;;;;;;;;11.80;49.10;;;12.02;52.49;101377.19;5053712;28;20023;-35
2024/01/07 09:28:52;;;;;;;;;;;11.80;49.20;;;12.03;52.14;101389.06;5053117;28;19991;-35
2024/01/07 09:31:20;;;;;;;;;;;11.80;49.00;;;12.02;52.06;101388.16;5053802;28;20389;-35
2024/01/07 09:33:48;;;;;;;;;;;11.80;49.10;;;12.03;51.80;101384.94;5053389;28;19925;-35
2024/01/07 09:36:16;;;;;;;;;;;11.80;49.00;;;12.03;51.85;101392.47;5045114;28;19925;-35
2024/01/07 09:38:58;;;;;;;;;;;11.80;49.20;;;12.01;52.11;101398.88;5051927;28;20055;-35
2024/01/07 09:41:26;;;;;;;;;;;11.80;49.00;;;11.99;52.12;101392.78;5052678;28;19928;-35
2024/01/07 09:43:54;;;;;;;;;;;11.80;49.10;;;12.00;52.27;101404.66;5052609;28;19931;-35
2024/01/07 09:46:22;;;;;;;;;;;11.80;49.10;;;12.02;51.98;101398.19;5052983;28;20027;-35
2024/01/07 09:48:50;;;;;;;;;;;11.80;49.10;;;12.00;51.89;101399.63;5051729;28;20024;-35
2024/01/07 09:51:19;;;;;;;;;;;11.80;49.30;;;11.99;51.80;101387.75;5052396;28;19971;-35
2024/01/07 09:53:47;;;;;;;;;;;11.80;49.30;;;12.02;51.42;101394.78;5053022;28;19925;-35
2024/01/07 09:56:19;;;;;;;;;;;11.90;49.10;;;12.02;52.28;101400.72;5060711;28;19925;-35
2024/01/07 09:58:49;;;;;;;;;;;11.90;49.20;;;12.04;52.57;101411.88;5051562;28;20380;-35
2024/01/07 10:01:18;;;;;;;;;;;11.90;49.40;;;12.05;52.47;101413.69;5044486;28;19932;-35
2024/01/07 10:03:46;;;;;;;;;;;11.90;49.40;;;12.05;52.29;101422.84;5051985;28;19968;-35
2024/01/07 10:06:14;;;;;;;;;;;11.90;49.40;;;12.01;52.17;101411.44;5052511;28;19925;-35
2024/01/07 10:08:42;;;;;;;;;;;11.90;49.00;;;11.96;52.43;101407.41;5051429;28;19925;-35
2024/01/07 10:11:10;;;;;;;;;;;11.80;48.70;;;11.97;52.46;101424.31;5052192;28;20015;-35
2024/01/07 10:13:39;;;;;;;;;;;11.80;48.90;;;11.95;52.05;101419.78;5052367;28;19925;-35
2024/01/07 10:16:08;;;;;;;;;;;11.80;48.90;;;11.92;51.52;101430.31;5051768;28;20389;-35
2024/01/07 10:18:36;;;;;;;;;;;11.80;48.90;;;11.90;52.00;101424.16;5051136;28;20015;-34
2024/01/07 10:21:04;;;;;;;;;;;11.80;48.80;;;11.89;51.53;101424.84;5050256;28;19929;-35
2024/01/07 10:23:32;;;;;;;;;;;11.70;48.90;;;11.88;51.83;101437.22;5052014;28;20088;-35
2024/01/07 10:26:01;;;;;;;;;;;11.70;48.90;;;11.88;52.33;101433.09;5051712;28;19987;-35
2024/01/07 10:28:40;;;;;;;;;;;11.70;48.90;;;11.86;51.69;101438.59;5051338;28;19925;-35
2024/01/07 10:31:08;;;;;;;;;;;11.70;48.80;;;11.84;51.97;101435.88;5051812;28;20209;-35
2024/01/07 10:33:36;;;;;;;;;;;11.70;48.70;;;11.81;51.28;101430.44;5051786;28;20387;-35
2024/01/07 10:36:06;;;;;;;;;;;11.70;48.60;;;11.82;51.63;101447.34;5051889;28;19929;-35
2024/01/07 10:38:34;;;;;;;;;;;11.60;48.60;;;11.82;51.52;101452.34;5051697;28;19929;-35
2024/01/07 10:41:02;;;;;;;;;;;11.60;48.50;;;11.80;51.50;101443.69;5051888;28;20388;-35
2024/01/07 10:43:30;;;;;;;;;;;11.60;48.60;;;11.82;51.02;101447.34;5051882;28;19983;-37
2024/01/07 10:46:01;;;;;;;;;;;11.60;48.60;;;11.83;51.59;101453.22;5052611;28;20454;-36
2024/01/07 10:48:31;;;;;;;;;;;11.70;49.20;;;11.83;50.92;101445.69;5052271;28;19971;-36
2024/01/07 10:51:00;;;;;;;;;;;11.70;48.50;;;11.83;51.87;101446.59;5050901;28;19931;-36
2024/01/07 10:53:29;;;;;;;;;;;11.70;48.50;;;11.85;51.11;101447.75;5051851;28;19925;-36
2024/01/07 10:56:04;;;;;;;;;;;11.70;48.50;;;11.88;51.73;101458.22;5051576;28;20012;-36
2024/01/07 10:58:33;;;;;;;;;;;11.70;48.60;;;11.92;51.23;101452.91;5051727;28;19960;-36
2024/01/07 11:01:03;;;;;;;;;;;11.70;48.60;;;11.92;51.41;101452.91;5052425;28;19925;-36
2024/01/07 11:03:36;;;;;;;;;;;11.70;48.70;;;11.93;51.70;101444.69;5056351;28;19929;-35
2024/01/07 11:06:07;;;;;;;;;;;11.70;48.90;;;11.91;51.23;101448.56;5053946;28;20022;-36
2024/01/07 11:08:36;;;;;;;;;;;11.80;48.80;;;12.03;51.38;101469.44;5051753;28;20015;-36
2024/01/07 11:11:06;;;;;;;;;;;11.80;48.70;;;12.06;51.62;101470.78;5051599;28;19936;-36
2024/01/07 11:13:35;;;;;;;;;;;11.90;48.80;;;12.06;51.67;101463.25;5051956;28;19931;-35
2024/01/07 11:16:05;;;;;;;;;;;11.90;48.50;;;12.11;52.09;101467.97;5051309;28;19964;-36